Woodland Park, Colorado
Current Conditions -  °F | °C
As of 10:58 PM on Friday 28 Nov 2014 (Local Time) from KAFF Reporting Station
Clear Clear  
Wind Chill: 52°   Ceiling: Unl
Heat Index: 52°   Visibility: 10mi
Dew Point:   Wind: 3mph
Humidity: 13%   Direction: NA
Pressure: 29.88"   Gusts: NA
Location:  38.99°N, 105.05°W
Report Text: KAFF 290558Z AUTO VRB03KT 10SM CLR 11/M17 A2988 RMK AO2 SLP064 T01091167 10161 20069 55004
Loading
Personal Weather Stations






























Interactive Weather Map New forecast layout! Learn more

10-Day Weather Forecast

Advertisements
Track Severe Weather on mobile